Pricetracker

Prefered stores
Product Type
Prefered DRM
Price
Discount
Date range
Availability
WhenProduct nameStoreDRMOld
Price
Current
Price
CutLocal
Price
2018-08-20 18:37:22King's Quest - Chapter 4: Snow Place Like HomeSteamSteam$9.99$6.6933%$6.69
2018-08-20 18:37:21Fantasy Grounds - D&D Hoard of the Dragon QueenSteamSteam$19.99$15.9920%$15.99
2018-08-20 18:37:21Deadlock: Planetary ConquestSteamSteam$6.99$1.7475%$1.74
2018-08-20 18:37:218-Bit Adventures: The Forgotten Journey Remastered EditionSteamSteam$9.99$3.9960%$3.99
2018-08-20 18:37:20Sid Meier's Covert Action (Classic)SteamSteam$6.99$2.0970%$2.09
2018-08-20 18:37:20Monument Builders - AlcatrazSteamSteam$4.99$2.4950%$2.49
2018-08-20 18:37:20FINAL TAKESteamSteam$1.99$0.4975%$0.49
2018-08-20 18:37:19The SwapperSteamSteam$14.99$2.8481%$2.84
2018-08-20 18:37:18RoundaboutSteamSteam$9.99$2.4975%$2.49
2018-08-20 18:37:18Frederic: Evil Strikes BackSteamSteam$7.99$0.7990%$0.79
2018-08-20 18:37:18Frederic: Resurrection of MusicSteamSteam$2.99$0.5083%$0.50
2018-08-20 18:37:17The Treasures of Montezuma 4SteamSteam$6.99$1.0485%$1.04
2018-08-20 18:37:17Planetoid PioneersSteamSteam$19.99$13.3933%$13.39
2018-08-20 18:37:17International SnookerSteamSteam$12.99$3.8970%$3.89
2018-08-20 18:37:16Commando JackSteamSteam$7.99$1.9975%$1.99
2018-08-20 18:37:16Empress Of The Deep 2: Song Of The Blue WhaleSteamSteam$4.99$0.9980%$0.99
2018-08-20 18:37:16Empress Of The DeepSteamSteam$4.99$0.9980%$0.99
2018-08-20 18:37:16MotoGP14 Donington Park British Grand Prix DLCSteamSteam$2.99$0.7475%$0.74
2018-08-20 18:37:15MotoGP14 Red Bull Rookies Cup DLCSteamSteam$1.99$0.4975%$0.49
2018-08-20 18:37:15MotoGP14 Laguna Seca Red Bull US Grand PrixSteamSteam$2.99$0.7475%$0.74
2018-08-20 18:37:15MotoGP14 Season PassSteamSteam$5.99$1.4975%$1.49
2018-08-20 18:37:15Portal of Evil: Stolen Runes Collector's EditionSteamSteam$4.99$0.4990%$0.49
2018-08-20 18:37:14in SpaceSteamSteam$0.99$0.7425%$0.74
2018-08-20 18:37:14Sparkle 3 GenesisSteamSteam$4.99$0.4990%$0.49
2018-08-20 18:37:14TimbermanSteamSteam$0.99$0.4950%$0.49
2018-08-20 18:37:13Ghost CleanerSteamSteam$5.99$1.4975%$1.49
2018-08-20 18:37:13Sunrider: Liberation Day - Captain's EditionSteamSteam$24.99$11.2455%$11.24
2018-08-20 18:37:13Claws & FeathersSteamSteam$6.99$1.0485%$1.04
2018-08-20 18:37:12Rocket League - Supersonic Fury DLC PackSteamSteam$3.99$2.3940%$2.39
2018-08-20 18:37:12Strategy & Tactics: Wargame CollectionSteamSteam$9.99$2.4975%$2.49
2018-08-20 18:37:11Marble DuelSteamSteam$4.99$1.2475%$1.24
2018-08-20 18:37:11FindersSteamSteam$5.99$0.8985%$0.89
2018-08-20 18:37:11Cricket Captain 2015SteamSteam$9.99$7.4925%$7.49
2018-08-20 18:37:10The Bug ButcherSteamSteam$7.99$3.1960%$3.19
2018-08-20 18:37:10Sherlock Holmes: The Devil's DaughterSteamSteam$49.99$19.9960%$19.99
2018-08-20 18:37:09The Age of DecadenceSteamSteam$19.99$6.7966%$6.79
2018-08-20 18:37:08Fruits Inc. Deluxe PackSteamSteam$7.99$1.9975%$1.99
2018-08-20 18:37:08Karate Master 2 Knock Down BlowSteamSteam$9.99$5.9940%$5.99
2018-08-20 18:37:07Retro/GradeSteamSteam$9.99$2.4975%$2.49
2018-08-20 18:37:07Nethergate: ResurrectionSteamSteam$4.99$1.4970%$1.49
2018-08-20 18:37:06Rocketbirds: Hardboiled ChickenSteamSteam$4.99$0.9980%$0.99
2018-08-20 18:37:06Thief II: The Metal AgeSteamSteam$6.99$0.9786%$0.97
2018-08-20 18:37:05Thief GoldSteamSteam$6.99$0.9786%$0.97
2018-08-20 18:37:05Heileen 3: New HorizonsSteamSteam$24.99$16.7433%$16.74
2018-08-20 18:37:04Heileen 2: The Hands Of FateSteamSteam$9.99$6.6933%$6.69
2018-08-20 18:37:04A Quiver of CrowsSteamSteam$14.99$5.9960%$5.99
2018-08-20 18:37:03Steam and MetalSteamSteam$4.99$0.9980%$0.99
2018-08-20 18:37:02Through the Woods - ArtbookSteamSteam$3.99$0.9975%$0.99
2018-08-20 18:37:02Through the Woods - SoundtrackSteamSteam$2.99$0.7475%$0.74
2018-08-20 18:37:02Just a ClericSteamSteam$4.99$3.4930%$3.49